Terminal Aerodrome Forecast
Issued by NWS Lake Charles, LA

Home | Current Version | Previous Version | Text Only | Print | Product List | Glossary On
Versions: 1 2 3 4 5 6 7 8 9 10 11 12 13 14 15 16 17 18 19 20 21
000
FTUS44 KLCH 250903 AAA
TAFAEX
TAF AMD
KAEX 250903Z 2509/2606 16003KT 6SM BR SCT005 BKN150
      TEMPO 2509/2513 OVC005
     FM251500 17010KT P6SM VCSH SCT025 BKN035
     FM251800 18013G21KT P6SM VCTS BKN035CB
      TEMPO 2520/2524 VRB20G30KT 2SM TSRA OVC025CB
     FM260000 15007KT P6SM VCTS BKN040CB=

USA.gov is the U.S. government's official web portal to all federal, state and local government web resources and services.